Time;durP1;ratioP1;P1;durP2;ratioP2;P2;SDS_P1;SDS_P2;PMS_P1;PMS_P2;Temp;Humidity;BMP_temperature;BMP_pressure;BME280_temperature;BME280_humidity;BME280_pressure;Samples;Min_cycle;Max_cycle;Signal;HPM_P1;HPM_P2
2023/04/09 03:03:17;;;;;;;21.83;11.18;;;8.10;93.40;;;;;;4929099;23;88949;-71
2023/04/09 03:05:43;;;;;;;19.15;10.43;;;8.10;93.40;;;;;;4863137;29;87993;-70
2023/04/09 03:08:09;;;;;;;19.27;11.93;;;8.10;93.20;;;;;;4862781;29;88309;-69
2023/04/09 03:10:34;;;;;;;18.83;11.27;;;8.10;93.10;;;;;;4863910;29;87172;-70
2023/04/09 03:13:00;;;;;;;16.92;10.30;;;8.10;93.00;;;;;;4862977;29;87605;-69
2023/04/09 03:15:25;;;;;;;18.60;10.90;;;8.10;93.10;;;;;;4862962;29;88378;-70
2023/04/09 03:17:51;;;;;;;19.17;10.82;;;8.10;93.10;;;;;;4851723;29;87153;-69
2023/04/09 03:20:17;;;;;;;19.27;10.98;;;8.10;92.90;;;;;;4863265;29;88301;-70
2023/04/09 03:22:42;;;;;;;19.67;11.07;;;8.00;93.00;;;;;;4863131;28;87709;-71
2023/04/09 03:25:08;;;;;;;18.45;10.70;;;8.00;93.10;;;;;;4863341;29;86782;-70
2023/04/09 03:27:34;;;;;;;20.17;10.13;;;7.90;93.20;;;;;;4862815;28;87791;-71
2023/04/09 03:30:00;;;;;;;19.38;10.82;;;7.90;93.40;;;;;;4863169;29;87102;-70
2023/04/09 03:32:25;;;;;;;18.38;9.88;;;7.90;93.60;;;;;;4860706;28;89542;-69
2023/04/09 03:34:51;;;;;;;18.02;10.20;;;7.80;93.80;;;;;;4850534;29;89008;-71
2023/04/09 03:37:17;;;;;;;17.35;9.30;;;7.90;93.50;;;;;;4844497;29;86971;-70
2023/04/09 03:39:42;;;;;;;19.08;9.90;;;7.90;93.70;;;;;;4843587;29;87578;-70
2023/04/09 03:42:08;;;;;;;14.93;9.30;;;7.90;93.50;;;;;;4844440;29;87141;-70
2023/04/09 03:44:33;;;;;;;14.55;8.80;;;8.00;93.30;;;;;;4860717;28;88017;-71
2023/04/09 03:46:59;;;;;;;17.80;9.73;;;8.00;93.20;;;;;;4863586;29;87455;-71
2023/04/09 03:49:25;;;;;;;15.45;8.60;;;8.00;93.20;;;;;;4863813;28;86733;-71
2023/04/09 03:51:50;;;;;;;17.10;9.73;;;8.00;93.00;;;;;;4852401;28;88019;-71
2023/04/09 03:54:16;;;;;;;15.77;9.20;;;8.00;93.00;;;;;;4844427;29;87513;-71
2023/04/09 03:56:42;;;;;;;15.70;9.00;;;8.00;93.00;;;;;;4855774;29;88735;-71
2023/04/09 03:59:07;;;;;;;16.08;9.68;;;8.00;93.30;;;;;;4844098;29;87715;-71
2023/04/09 04:01:33;;;;;;;16.48;9.68;;;8.00;93.30;;;;;;4847252;28;87918;-71
2023/04/09 04:03:59;;;;;;;17.20;9.98;;;8.00;93.50;;;;;;4879006;28;90011;-71
2023/04/09 04:06:26;;;;;;;18.70;10.38;;;8.00;93.60;;;;;;4879043;28;87544;-71
2023/04/09 04:08:52;;;;;;;17.58;9.18;;;8.10;93.60;;;;;;4874782;28;87607;-71
2023/04/09 04:11:17;;;;;;;18.52;9.65;;;8.10;93.20;;;;;;4864111;28;88342;-70
2023/04/09 04:13:43;;;;;;;15.77;8.88;;;8.10;93.10;;;;;;4881926;28;87870;-71
2023/04/09 04:16:09;;;;;;;16.25;9.48;;;8.20;92.80;;;;;;4882202;28;87401;-71
2023/04/09 04:18:35;;;;;;;15.20;9.05;;;8.20;92.50;;;;;;4881818;28;87459;-71
2023/04/09 04:21:01;;;;;;;14.95;9.25;;;8.20;92.40;;;;;;4878211;28;88246;-72
2023/04/09 04:23:27;;;;;;;15.02;8.75;;;8.20;92.40;;;;;;4881462;28;88261;-71
2023/04/09 04:25:53;;;;;;;14.52;8.85;;;8.20;92.30;;;;;;4878265;28;87118;-70
2023/04/09 04:28:18;;;;;;;16.58;9.57;;;8.20;92.10;;;;;;4881419;28;87422;-70
2023/04/09 04:30:44;;;;;;;15.07;9.55;;;8.10;92.00;;;;;;4881260;28;88451;-70
2023/04/09 04:33:10;;;;;;;13.40;8.13;;;8.10;92.30;;;;;;4881247;28;88441;-70
2023/04/09 04:35:35;;;;;;;16.88;9.20;;;8.00;92.10;;;;;;4881500;28;87175;-70
2023/04/09 04:38:01;;;;;;;17.35;9.25;;;8.00;92.40;;;;;;4882297;28;86923;-70
2023/04/09 04:40:27;;;;;;;17.00;9.75;;;8.10;92.50;;;;;;4881156;28;88221;-70
2023/04/09 04:42:52;;;;;;;15.45;9.27;;;8.10;92.50;;;;;;4873606;28;87846;-70
2023/04/09 04:45:18;;;;;;;15.50;8.88;;;8.20;92.30;;;;;;4881009;28;88320;-70
2023/04/09 04:47:44;;;;;;;16.30;8.90;;;8.20;92.20;;;;;;4881584;28;87208;-70
2023/04/09 04:50:10;;;;;;;15.73;9.40;;;8.20;92.10;;;;;;4881388;28;87945;-70
2023/04/09 04:52:37;;;;;;;14.68;8.30;;;8.20;92.10;;;;;;4880608;28;87150;-70
2023/04/09 04:55:03;;;;;;;14.98;7.68;;;8.20;92.20;;;;;;4878566;28;87135;-71
2023/04/09 04:57:29;;;;;;;13.75;8.70;;;8.20;92.00;;;;;;4860530;28;87575;-71
2023/04/09 04:59:54;;;;;;;13.63;7.38;;;8.20;91.90;;;;;;4875653;28;87531;-71
2023/04/09 05:02:20;;;;;;;14.90;8.38;;;8.20;91.30;;;;;;4880549;28;88058;-70
2023/04/09 05:04:46;;;;;;;14.60;7.97;;;8.10;91.30;;;;;;4881180;28;87434;-70
2023/04/09 05:07:11;;;;;;;15.85;8.02;;;8.00;91.60;;;;;;4875414;28;87430;-71
2023/04/09 05:09:37;;;;;;;14.43;8.35;;;8.00;91.60;;;;;;4878899;28;89277;-70
2023/04/09 05:12:03;;;;;;;15.82;8.85;;;8.00;91.60;;;;;;4879393;28;88313;-71
2023/04/09 05:14:29;;;;;;;13.57;8.25;;;7.90;91.90;;;;;;4874176;28;87629;-71
2023/04/09 05:16:54;;;;;;;12.88;7.32;;;7.90;91.70;;;;;;4878065;28;87119;-70
2023/04/09 05:19:20;;;;;;;14.10;8.15;;;7.90;91.40;;;;;;4880575;28;88668;-70
2023/04/09 05:21:46;;;;;;;14.73;8.27;;;7.80;91.30;;;;;;4870816;28;91405;-70
2023/04/09 05:24:11;;;;;;;13.27;7.55;;;7.70;91.50;;;;;;4874530;28;88911;-70
2023/04/09 05:26:38;;;;;;;11.63;6.53;;;7.80;91.50;;;;;;4875842;28;86746;-72
2023/04/09 05:29:03;;;;;;;12.90;7.80;;;7.80;91.40;;;;;;4876462;28;87650;-71
2023/04/09 05:31:29;;;;;;;13.90;7.82;;;7.90;91.30;;;;;;4873501;28;89433;-71
2023/04/09 05:33:54;;;;;;;15.60;9.63;;;8.10;90.90;;;;;;4873634;28;88264;-71
2023/04/09 05:36:20;;;;;;;13.52;7.93;;;8.10;90.80;;;;;;4879742;28;87502;-71
2023/04/09 05:38:46;;;;;;;16.67;8.48;;;8.20;90.70;;;;;;4878892;28;88272;-71
2023/04/09 05:41:12;;;;;;;14.98;8.55;;;8.30;90.90;;;;;;4870301;28;87480;-71
2023/04/09 05:43:38;;;;;;;19.75;10.38;;;8.40;90.20;;;;;;4869399;28;87538;-71
2023/04/09 05:46:04;;;;;;;18.95;9.80;;;8.40;90.40;;;;;;4867108;28;87691;-70
2023/04/09 05:48:30;;;;;;;16.27;9.35;;;8.50;90.20;;;;;;4866298;28;88129;-71
2023/04/09 05:50:55;;;;;;;13.43;7.72;;;8.50;90.20;;;;;;4865971;28;88953;-71
2023/04/09 05:53:21;;;;;;;15.25;7.93;;;8.70;89.80;;;;;;4861130;28;88082;-71
2023/04/09 05:55:50;;;;;;;24.50;12.27;;;8.70;89.50;;;;;;4861269;28;88642;-70
2023/04/09 05:58:20;;;;;;;19.15;9.90;;;8.80;88.60;;;;;;4855079;28;91218;-72
2023/04/09 06:00:46;;;;;;;16.90;8.50;;;8.80;87.90;;;;;;4864932;28;88604;-71
2023/04/09 06:03:12;;;;;;;14.40;7.78;;;8.90;87.60;;;;;;4859623;28;87660;-71
2023/04/09 06:05:37;;;;;;;14.80;7.95;;;9.10;86.90;;;;;;4870364;28;88218;-71
2023/04/09 06:08:03;;;;;;;15.20;8.27;;;9.60;85.70;;;;;;4842358;28;89216;-71
2023/04/09 06:10:31;;;;;;;11.82;7.22;;;10.60;83.10;;;;;;4863388;28;87826;-71
2023/04/09 06:12:57;;;;;;;10.98;6.43;;;11.90;78.70;;;;;;4869470;28;87441;-72
2023/04/09 06:15:22;;;;;;;11.50;6.82;;;13.20;73.30;;;;;;4869518;28;86828;-71
2023/04/09 06:17:48;;;;;;;11.00;7.35;;;14.20;70.30;;;;;;4867249;28;88491;-71
2023/04/09 06:20:14;;;;;;;9.77;6.53;;;15.10;66.40;;;;;;4870794;28;87656;-71
2023/04/09 06:22:39;;;;;;;9.18;6.22;;;16.00;63.50;;;;;;4873100;28;88515;-71
2023/04/09 06:25:06;;;;;;;10.70;7.85;;;16.40;60.60;;;;;;4870664;28;87496;-72
2023/04/09 06:27:31;;;;;;;9.93;7.28;;;16.40;60.50;;;;;;4870278;28;88656;-72
2023/04/09 06:29:57;;;;;;;10.25;6.40;;;15.90;61.40;;;;;;4869599;28;88896;-72
2023/04/09 06:32:23;;;;;;;10.20;7.18;;;15.90;62.30;;;;;;4872537;28;87470;-72
2023/04/09 06:34:48;;;;;;;11.25;7.45;;;15.80;63.00;;;;;;4872365;28;88741;-71
2023/04/09 06:37:14;;;;;;;9.35;6.85;;;16.40;61.20;;;;;;4881430;28;87646;-71
2023/04/09 06:39:40;;;;;;;9.30;6.75;;;16.90;60.00;;;;;;4875184;28;87863;-72
2023/04/09 06:42:06;;;;;;;10.20;6.75;;;17.40;58.80;;;;;;4870827;28;88861;-72
2023/04/09 06:44:34;;;;;;;9.40;6.88;;;17.70;57.00;;;;;;4871010;28;87364;-72
2023/04/09 06:47:01;;;;;;;11.57;7.10;;;17.30;57.40;;;;;;4869564;28;89138;-74
2023/04/09 06:49:26;;;;;;;9.10;7.00;;;16.70;59.10;;;;;;4863076;28;88808;-73
2023/04/09 06:51:52;;;;;;;11.15;7.53;;;16.50;59.30;;;;;;4862154;28;89046;-73
2023/04/09 06:54:19;;;;;;;11.30;8.13;;;16.60;60.20;;;;;;4867479;28;89145;-73
2023/04/09 06:56:45;;;;;;;12.45;7.65;;;16.50;59.50;;;;;;4874309;28;88196;-73
2023/04/09 06:59:10;;;;;;;10.05;7.45;;;16.40;59.20;;;;;;4863180;28;88912;-72
2023/04/09 07:01:37;;;;;;;10.35;7.38;;;16.50;59.60;;;;;;4874315;28;88989;-71
2023/04/09 07:04:03;;;;;;;10.48;7.53;;;16.80;58.90;;;;;;4876368;28;88356;-72
2023/04/09 07:06:29;;;;;;;11.35;7.88;;;17.60;57.80;;;;;;4876933;28;87509;-73
2023/04/09 07:08:55;;;;;;;11.77;8.55;;;17.40;56.80;;;;;;4874371;28;87801;-72
2023/04/09 07:11:20;;;;;;;10.68;7.70;;;17.70;57.60;;;;;;4871729;28;88566;-72
2023/04/09 07:13:46;;;;;;;13.43;7.93;;;18.90;54.60;;;;;;4873821;28;87601;-73
2023/04/09 07:16:12;;;;;;;11.00;8.23;;;19.30;53.70;;;;;;4868692;28;88551;-73
2023/04/09 07:18:37;;;;;;;12.50;9.55;;;19.40;52.90;;;;;;4874053;28;88292;-73
2023/04/09 07:21:04;;;;;;;9.48;7.28;;;20.70;51.10;;;;;;4869546;28;87533;-72
2023/04/09 07:23:33;;;;;;;10.07;7.20;;;21.80;47.80;;;;;;4872886;28;87733;-73
2023/04/09 07:26:02;;;;;;;11.68;6.70;;;23.00;45.50;;;;;;4870633;28;88678;-71
2023/04/09 07:28:27;;;;;;;9.38;7.82;;;22.40;47.50;;;;;;4876362;28;89172;-74
2023/04/09 07:30:53;;;;;;;9.60;7.88;;;21.50;46.30;;;;;;4877971;28;87741;-71
2023/04/09 07:33:19;;;;;;;11.45;7.97;;;22.30;47.00;;;;;;4869947;28;87650;-74
2023/04/09 07:35:45;;;;;;;9.93;7.38;;;22.90;45.60;;;;;;4874021;28;89097;-71
2023/04/09 07:38:11;;;;;;;9.85;7.82;;;23.00;44.70;;;;;;4877423;28;87758;-71
2023/04/09 07:40:37;;;;;;;9.15;7.32;;;23.70;43.80;;;;;;4873766;28;87374;-72
2023/04/09 07:43:04;;;;;;;7.65;6.63;;;24.70;41.70;;;;;;4855958;28;87717;-72
2023/04/09 07:45:29;;;;;;;9.48;7.55;;;23.80;41.80;;;;;;4868273;28;88089;-71
2023/04/09 07:47:55;;;;;;;9.52;7.55;;;21.50;44.50;;;;;;4870919;28;88607;-74
2023/04/09 07:50:21;;;;;;;10.02;7.90;;;21.20;47.10;;;;;;4876776;28;87215;-71
2023/04/09 07:52:46;;;;;;;9.55;7.85;;;22.90;44.60;;;;;;4881596;28;86932;-71
2023/04/09 07:55:12;;;;;;;8.88;7.95;;;24.80;41.70;;;;;;4881332;28;87579;-71
2023/04/09 07:57:38;;;;;;;11.38;9.15;;;25.30;39.40;;;;;;4882692;28;87361;-71
2023/04/09 08:00:04;;;;;;;9.65;7.68;;;24.50;42.00;;;;;;4882095;28;88065;-71
2023/04/09 08:02:30;;;;;;;9.38;7.88;;;24.20;42.20;;;;;;4882130;28;87334;-72
2023/04/09 08:04:56;;;;;;;10.85;8.38;;;25.10;41.80;;;;;;4875756;28;88334;-73
2023/04/09 08:07:22;;;;;;;10.60;7.75;;;26.80;40.00;;;;;;4885076;28;87043;-73
2023/04/09 08:09:48;;;;;;;8.00;7.00;;;28.70;37.90;;;;;;4876786;28;87562;-74
2023/04/09 08:12:13;;;;;;;8.45;7.45;;;30.40;36.40;;;;;;4876022;28;89111;-73
2023/04/09 08:14:40;;;;;;;9.68;7.93;;;32.20;34.90;;;;;;4876636;28;87468;-74
2023/04/09 08:17:05;;;;;;;9.48;8.57;;;33.10;34.90;;;;;;4875939;28;87354;-76
2023/04/09 08:19:31;;;;;;;9.32;7.75;;;32.90;34.10;;;;;;4882949;28;87488;-76
2023/04/09 08:21:57;;;;;;;8.32;7.53;;;33.30;32.90;;;;;;4885164;28;87229;-77
2023/04/09 08:24:23;;;;;;;9.07;8.18;;;33.00;31.90;;;;;;4879385;28;89748;-75
2023/04/09 08:26:48;;;;;;;8.93;8.02;;;32.50;31.20;;;;;;4881492;28;88303;-76
2023/04/09 08:29:14;;;;;;;9.48;8.48;;;32.80;32.90;;;;;;4859476;28;87736;-74
2023/04/09 08:31:40;;;;;;;10.27;9.02;;;33.50;31.60;;;;;;4882554;28;87732;-74
2023/04/09 08:34:06;;;;;;;8.43;7.45;;;33.30;31.50;;;;;;4863901;28;89552;-74
2023/04/09 08:36:34;;;;;;;8.68;7.78;;;31.00;32.20;;;;;;4882009;28;88132;-73
2023/04/09 08:39:00;;;;;;;9.50;8.50;;;30.50;33.60;;;;;;4885618;28;87083;-76
2023/04/09 08:41:30;;;;;;;9.35;8.35;;;31.70;34.10;;;;;;4871155;28;86349;-73
2023/04/09 08:43:57;;;;;;;9.13;8.23;;;33.00;32.70;;;;;;4881126;28;88173;-71
2023/04/09 08:46:23;;;;;;;9.43;7.97;;;33.80;31.10;;;;;;4881620;28;87855;-73
2023/04/09 08:48:50;;;;;;;8.43;7.63;;;32.90;31.10;;;;;;4880772;28;88497;-75
2023/04/09 08:51:19;;;;;;;8.90;8.00;;;32.10;31.70;;;;;;4880003;28;87642;-73
2023/04/09 08:53:49;;;;;;;9.07;7.70;;;32.70;32.80;;;;;;4881841;28;88222;-73
2023/04/09 08:56:15;;;;;;;8.15;7.35;;;31.40;31.40;;;;;;4881869;28;87538;-74
2023/04/09 08:58:45;;;;;;;9.25;8.05;;;30.10;32.90;;;;;;4863799;28;87154;-75
2023/04/09 09:01:30;;;;;;;8.73;7.22;;;29.40;33.80;;;;;;4882114;28;87324;-73
2023/04/09 09:03:59;;;;;;;10.15;7.63;;;29.00;35.10;;;;;;4885733;28;87491;-73
2023/04/09 09:06:37;;;;;;;10.18;8.43;;;27.00;35.50;;;;;;4876077;28;87924;-74
2023/04/09 09:09:04;;;;;;;9.48;8.13;;;26.50;38.10;;;;;;4881759;28;87420;-73
2023/04/09 09:11:31;;;;;;;10.25;8.38;;;28.60;37.30;;;;;;4887813;28;87549;-76
2023/04/09 09:13:59;;;;;;;10.75;9.18;;;29.70;36.20;;;;;;4892125;28;89062;-74
2023/04/09 09:16:25;;;;;;;9.75;8.75;;;31.10;33.50;;;;;;4864706;28;91172;-73
2023/04/09 09:18:51;;;;;;;8.13;7.10;;;33.10;31.80;;;;;;4881936;28;87576;-72
2023/04/09 09:21:18;;;;;;;9.38;8.48;;;33.50;30.30;;;;;;4879829;28;87192;-74
2023/04/09 09:23:44;;;;;;;9.75;8.75;;;33.80;30.00;;;;;;4881784;28;87483;-75
2023/04/09 09:26:24;;;;;;;8.82;7.93;;;33.60;30.90;;;;;;4882628;28;87120;-74
2023/04/09 09:28:50;;;;;;;9.43;8.40;;;34.50;30.00;;;;;;4902411;28;87485;-78
2023/04/09 09:31:18;;;;;;;9.32;8.43;;;34.90;29.70;;;;;;4892259;28;86887;-76
2023/04/09 09:33:45;;;;;;;9.52;8.63;;;34.80;30.40;;;;;;4878508;28;88865;-77
2023/04/09 09:36:11;;;;;;;9.13;8.10;;;35.00;30.60;;;;;;4864881;28;87549;-73
2023/04/09 09:38:55;;;;;;;9.93;8.93;;;34.00;30.40;;;;;;4868780;28;88127;-73
2023/04/09 09:41:21;;;;;;;10.70;9.60;;;34.20;31.10;;;;;;4877752;28;87090;-73
2023/04/09 09:43:47;;;;;;;9.93;7.82;;;34.60;29.90;;;;;;4878459;28;87240;-74
2023/04/09 09:46:13;;;;;;;10.15;7.30;;;35.60;30.60;;;;;;4874785;28;88204;-74
2023/04/09 09:48:41;;;;;;;8.77;7.90;;;35.40;29.60;;;;;;4879168;28;87334;-74
2023/04/09 09:51:11;;;;;;;10.77;9.77;;;34.80;30.20;;;;;;4880531;28;87157;-74
2023/04/09 09:53:38;;;;;;;7.60;6.88;;;34.60;29.10;;;;;;4882695;28;88194;-74
2023/04/09 09:56:05;;;;;;;8.68;7.78;;;35.00;29.50;;;;;;4866443;28;89014;-74
2023/04/09 09:58:39;;;;;;;7.30;6.60;;;35.10;29.80;;;;;;4874493;28;87338;-75
2023/04/09 10:01:11;;;;;;;8.18;7.35;;;35.20;29.30;;;;;;4867078;28;88004;-74
2023/04/09 10:03:39;;;;;;;7.32;6.63;;;35.50;29.70;;;;;;4868610;28;89161;-74
2023/04/09 10:06:06;;;;;;;7.75;6.47;;;35.70;29.40;;;;;;4880516;28;87570;-74
2023/04/09 10:08:33;;;;;;;10.98;9.98;;;35.40;28.60;;;;;;4884083;28;87305;-73
2023/04/09 10:11:00;;;;;;;7.07;5.88;;;34.60;29.30;;;;;;4886544;28;87696;-73
2023/04/09 10:13:42;;;;;;;9.52;8.60;;;33.60;32.00;;;;;;4889825;28;88524;-73
2023/04/09 10:16:08;;;;;;;6.60;5.65;;;33.40;30.00;;;;;;4886248;28;88085;-73
2023/04/09 10:18:35;;;;;;;6.78;6.07;;;32.20;29.10;;;;;;4895329;28;87084;-73
2023/04/09 10:21:22;;;;;;;7.30;5.78;;;30.60;32.00;;;;;;4878468;28;86779;-72
2023/04/09 10:23:49;;;;;;;7.80;5.60;;;28.70;32.90;;;;;;4882521;28;88195;-74
2023/04/09 10:26:17;;;;;;;7.32;5.22;;;27.40;35.50;;;;;;4882811;28;87743;-74
2023/04/09 10:28:43;;;;;;;6.80;5.55;;;26.30;37.30;;;;;;4888354;28;88003;-72
2023/04/09 10:31:09;;;;;;;7.05;5.50;;;24.90;37.30;;;;;;4886496;28;88164;-74
2023/04/09 10:33:38;;;;;;;6.82;5.10;;;23.90;41.00;;;;;;4885535;28;88679;-74
2023/04/09 10:36:08;;;;;;;6.82;5.07;;;22.90;40.00;;;;;;4884743;28;87837;-74
2023/04/09 10:38:39;;;;;;;6.82;4.78;;;22.10;40.40;;;;;;4884028;28;87072;-74
2023/04/09 10:41:21;;;;;;;6.88;5.28;;;21.20;45.50;;;;;;4883276;28;87091;-73
2023/04/09 10:43:47;;;;;;;6.75;4.32;;;20.60;42.90;;;;;;4882930;28;88144;-74
2023/04/09 10:46:29;;;;;;;5.40;3.85;;;20.40;46.60;;;;;;4878281;28;88083;-74
2023/04/09 10:49:06;;;;;;;4.43;3.30;;;20.20;45.40;;;;;;4880821;28;87341;-73
2023/04/09 10:51:37;;;;;;;7.00;4.03;;;20.40;46.10;;;;;;4882797;28;87668;-73
2023/04/09 10:54:05;;;;;;;6.03;3.72;;;20.20;46.70;;;;;;4889255;28;89750;-74
2023/04/09 10:56:31;;;;;;;5.90;3.95;;;20.30;48.10;;;;;;4877675;28;88853;-74
2023/04/09 10:58:57;;;;;;;6.72;4.28;;;20.40;47.10;;;;;;4883317;28;87758;-73
2023/04/09 11:01:25;;;;;;;6.55;4.40;;;20.10;44.60;;;;;;4885355;28;87072;-74
2023/04/09 11:04:08;;;;;;;6.07;4.13;;;19.50;45.80;;;;;;4885205;28;88150;-73
2023/04/09 11:06:38;;;;;;;5.82;3.65;;;19.30;46.10;;;;;;4885682;28;87712;-73
2023/04/09 11:09:04;;;;;;;6.32;3.65;;;19.00;48.30;;;;;;4882149;28;88803;-73
2023/04/09 11:11:29;;;;;;;5.72;3.70;;;19.10;49.30;;;;;;4887224;28;86788;-73
2023/04/09 11:14:00;;;;;;;6.35;4.15;;;19.30;49.00;;;;;;4883112;28;88093;-72
2023/04/09 11:16:29;;;;;;;5.88;3.55;;;19.40;50.50;;;;;;4873114;28;87197;-72
2023/04/09 11:18:56;;;;;;;5.10;3.47;;;19.20;50.50;;;;;;4887924;28;88112;-72
2023/04/09 11:21:26;;;;;;;5.85;3.85;;;19.20;49.60;;;;;;4884544;28;87369;-72
2023/04/09 11:23:52;;;;;;;4.45;3.20;;;19.10;48.60;;;;;;4871347;28;88322;-72
2023/04/09 11:26:23;;;;;;;5.55;3.72;;;19.00;47.30;;;;;;4883766;28;87505;-72
2023/04/09 11:28:49;;;;;;;6.00;3.30;;;18.70;46.40;;;;;;4883260;28;87150;-72
2023/04/09 11:31:15;;;;;;;5.28;3.63;;;18.30;46.00;;;;;;4879034;28;87092;-72
2023/04/09 11:33:46;;;;;;;5.75;3.40;;;18.20;51.70;;;;;;4882592;28;88650;-72
2023/04/09 11:36:11;;;;;;;5.10;2.90;;;18.10;49.60;;;;;;4885715;28;87442;-72
2023/04/09 11:38:37;;;;;;;4.85;2.40;;;18.00;51.10;;;;;;4884974;28;87194;-72
2023/04/09 11:41:03;;;;;;;5.13;2.72;;;17.90;50.20;;;;;;4884212;28;86973;-72
2023/04/09 11:43:29;;;;;;;5.45;2.95;;;18.00;47.90;;;;;;4865090;28;91506;-72
2023/04/09 11:45:55;;;;;;;4.68;2.67;;;17.80;49.30;;;;;;4885345;28;88280;-72
2023/04/09 11:48:23;;;;;;;5.50;3.15;;;17.90;51.60;;;;;;4881735;28;87243;-72
2023/04/09 11:50:49;;;;;;;5.60;3.30;;;18.00;50.90;;;;;;4884268;28;87661;-73
2023/04/09 11:53:20;;;;;;;5.80;3.65;;;17.70;51.10;;;;;;4863670;28;88272;-72
2023/04/09 11:55:49;;;;;;;4.30;2.92;;;17.40;49.20;;;;;;4884258;28;87263;-72
2023/04/09 11:58:16;;;;;;;;;;;17.40;54.60;;;;;;4866547;28;87030;-72
2023/04/09 12:00:42;;;;;;;5.32;3.20;;;17.50;52.40;;;;;;4885785;28;87019;-72
2023/04/09 12:03:09;;;;;;;5.20;3.15;;;17.40;52.80;;;;;;4883393;28;87674;-72
2023/04/09 12:05:35;;;;;;;5.35;2.88;;;17.40;53.20;;;;;;4870614;28;88656;-72
2023/04/09 12:08:07;;;;;;;4.88;2.97;;;17.20;53.60;;;;;;4883985;28;88388;-72
2023/04/09 12:10:35;;;;;;;4.80;3.13;;;17.30;52.70;;;;;;4867181;28;87389;-72
2023/04/09 12:13:09;;;;;;;5.75;3.20;;;17.20;49.30;;;;;;4884222;28;87593;-72
2023/04/09 12:15:40;;;;;;;6.35;3.20;;;17.20;55.00;;;;;;4887167;28;87834;-71
2023/04/09 12:18:10;;;;;;;5.43;3.30;;;17.40;54.80;;;;;;4881176;28;87232;-72
2023/04/09 12:20:38;;;;;;;6.35;3.40;;;17.60;54.70;;;;;;4872039;28;87091;-72
2023/04/09 12:23:05;;;;;;;4.82;2.80;;;17.60;49.90;;;;;;4878449;28;87764;-73
2023/04/09 12:25:36;;;;;;;4.97;3.20;;;17.50;54.80;;;;;;4877458;28;91080;-73
2023/04/09 12:28:03;;;;;;;4.82;2.75;;;17.60;51.80;;;;;;4888058;28;87117;-73
2023/04/09 12:30:29;;;;;;;5.93;3.78;;;17.50;54.60;;;;;;4883119;28;87087;-73
2023/04/09 12:32:55;;;;;;;5.40;3.50;;;17.50;51.60;;;;;;4883289;28;88416;-72
2023/04/09 12:35:21;;;;;;;5.63;3.30;;;17.40;51.70;;;;;;4884570;28;88955;-72
2023/04/09 12:37:48;;;;;;;5.38;2.92;;;17.40;53.00;;;;;;4881104;28;87253;-72
2023/04/09 12:40:14;;;;;;;5.40;2.50;;;17.20;51.50;;;;;;4882592;28;87188;-72
2023/04/09 12:42:45;;;;;;;4.65;2.55;;;17.00;51.60;;;;;;4881791;28;88197;-72
2023/04/09 12:45:13;;;;;;;4.65;2.63;;;17.00;50.40;;;;;;4882336;28;87852;-72
2023/04/09 12:47:39;;;;;;;3.90;2.08;;;17.00;49.50;;;;;;4881707;28;87059;-72
2023/04/09 12:50:06;;;;;;;4.28;2.20;;;16.80;49.60;;;;;;4884217;28;86387;-72
2023/04/09 12:52:33;;;;;;;2.60;1.30;;;17.00;53.30;;;;;;4882116;28;88128;-72
2023/04/09 12:54:59;;;;;;;2.90;1.42;;;16.80;47.40;;;;;;4879124;28;87402;-72
2023/04/09 12:57:25;;;;;;;2.88;1.70;;;16.70;49.10;;;;;;4884014;28;88495;-72
2023/04/09 12:59:51;;;;;;;2.80;1.38;;;16.70;50.00;;;;;;4882348;28;87459;-72
2023/04/09 13:02:17;;;;;;;3.72;1.70;;;16.60;48.10;;;;;;4890235;28;87551;-72
2023/04/09 13:04:43;;;;;;;4.18;2.28;;;16.40;49.10;;;;;;4891452;28;88862;-72
2023/04/09 13:07:08;;;;;;;3.97;2.10;;;16.50;53.00;;;;;;4884399;28;86932;-72
2023/04/09 13:09:34;;;;;;;4.60;2.40;;;16.40;54.10;;;;;;4883184;28;87059;-72
2023/04/09 13:12:01;;;;;;;3.30;1.70;;;16.50;52.80;;;;;;4885381;28;88696;-73
2023/04/09 13:14:26;;;;;;;4.57;1.92;;;16.60;50.80;;;;;;4875064;28;87384;-73
2023/04/09 13:16:52;;;;;;;3.53;1.88;;;16.60;49.60;;;;;;4865633;28;89025;-72
2023/04/09 13:19:18;;;;;;;2.63;1.10;;;16.50;53.50;;;;;;4870148;28;87203;-73
2023/04/09 13:21:44;;;;;;;2.90;1.63;;;16.70;51.00;;;;;;4864435;28;89211;-73
2023/04/09 13:24:10;;;;;;;3.00;1.33;;;16.80;51.60;;;;;;4868060;28;88731;-73
2023/04/09 13:26:35;;;;;;;3.70;1.83;;;16.90;52.00;;;;;;4883492;28;86993;-72
2023/04/09 13:29:01;;;;;;;2.78;1.30;;;17.00;51.30;;;;;;4875635;28;89272;-73
2023/04/09 13:31:27;;;;;;;2.83;1.10;;;17.00;50.80;;;;;;4876804;28;88199;-72
2023/04/09 13:33:52;;;;;;;1.80;0.55;;;17.10;51.40;;;;;;4864542;28;90941;-73
2023/04/09 13:36:18;;;;;;;1.63;0.63;;;17.20;48.80;;;;;;4887181;28;87220;-73
2023/04/09 13:38:44;;;;;;;1.42;0.25;;;17.10;47.10;;;;;;4894416;28;88330;-73
2023/04/09 13:41:09;;;;;;;1.20;0.43;;;16.90;46.60;;;;;;4875548;28;88149;-73
2023/04/09 13:43:35;;;;;;;1.58;0.50;;;16.70;44.90;;;;;;4879589;28;87288;-72
2023/04/09 13:46:02;;;;;;;1.88;0.60;;;16.60;45.90;;;;;;4877651;28;88115;-73
2023/04/09 13:48:28;;;;;;;1.33;0.50;;;16.60;49.20;;;;;;4875156;28;87863;-73
2023/04/09 13:50:54;;;;;;;1.70;0.50;;;16.70;46.50;;;;;;4880991;28;87721;-73
2023/04/09 13:53:20;;;;;;;1.95;0.68;;;16.60;47.60;;;;;;4873766;28;87450;-73
2023/04/09 13:55:46;;;;;;;1.38;0.50;;;16.60;48.40;;;;;;4871303;28;88438;-72
2023/04/09 13:58:12;;;;;;;1.52;0.45;;;16.60;48.90;;;;;;4867886;28;88653;-73
2023/04/09 14:00:38;;;;;;;1.55;0.52;;;16.60;49.20;;;;;;4885768;28;87660;-72
2023/04/09 14:03:03;;;;;;;1.98;0.60;;;16.60;45.20;;;;;;4879347;28;87879;-73
2023/04/09 14:05:31;;;;;;;2.60;0.40;;;16.60;48.10;;;;;;4882150;28;87640;-72
2023/04/09 14:07:57;;;;;;;1.63;0.57;;;16.50;46.10;;;;;;4887110;28;88104;-72
2023/04/09 14:10:23;;;;;;;2.50;1.00;;;16.50;47.20;;;;;;4879572;28;88524;-73
2023/04/09 14:12:49;;;;;;;1.88;1.00;;;16.50;47.00;;;;;;4881574;28;88218;-73
2023/04/09 14:15:15;;;;;;;1.80;0.70;;;16.50;49.70;;;;;;4883159;28;88773;-73
2023/04/09 14:17:42;;;;;;;3.30;1.13;;;16.60;48.40;;;;;;4884651;28;87539;-73
2023/04/09 14:20:08;;;;;;;1.85;0.60;;;16.70;48.40;;;;;;4883428;28;88895;-73
2023/04/09 14:22:34;;;;;;;1.83;0.70;;;16.70;49.30;;;;;;4885730;28;88403;-73
2023/04/09 14:25:00;;;;;;;1.98;0.80;;;16.80;49.10;;;;;;4886834;28;87447;-72
2023/04/09 14:27:26;;;;;;;2.25;0.65;;;16.70;49.20;;;;;;4870434;28;86969;-73
2023/04/09 14:29:52;;;;;;;2.67;0.77;;;16.60;48.80;;;;;;4884040;28;87395;-72
2023/04/09 14:32:18;;;;;;;2.30;0.40;;;16.60;50.00;;;;;;4885482;28;88499;-73
2023/04/09 14:34:43;;;;;;;1.63;0.50;;;16.60;47.30;;;;;;4882094;28;88336;-73
2023/04/09 14:37:09;;;;;;;1.42;0.30;;;16.60;48.80;;;;;;4882568;28;87189;-72
2023/04/09 14:39:35;;;;;;;1.55;0.65;;;16.60;50.30;;;;;;4891718;28;88629;-72
2023/04/09 14:42:01;;;;;;;2.05;0.45;;;16.60;47.50;;;;;;4889150;28;87630;-73
2023/04/09 14:44:26;;;;;;;2.05;0.52;;;16.50;47.70;;;;;;4884489;28;87420;-73
2023/04/09 14:46:53;;;;;;;1.33;0.45;;;16.50;47.80;;;;;;4884501;28;87140;-73
2023/04/09 14:49:20;;;;;;;1.55;0.30;;;16.40;48.70;;;;;;4883433;28;89570;-72
2023/04/09 14:51:46;;;;;;;1.23;0.30;;;16.30;49.00;;;;;;4884963;28;87989;-72
2023/04/09 14:54:11;;;;;;;1.33;0.52;;;16.40;50.10;;;;;;4876611;28;87176;-72
2023/04/09 14:56:37;;;;;;;2.97;0.88;;;16.40;47.90;;;;;;4874867;28;87120;-72
2023/04/09 14:59:03;;;;;;;1.65;0.70;;;16.40;49.00;;;;;;4883772;28;88596;-72
2023/04/09 15:01:29;;;;;;;1.58;0.50;;;16.30;49.00;;;;;;4883741;28;88562;-72
2023/04/09 15:03:54;;;;;;;1.80;0.52;;;16.30;49.50;;;;;;4883592;28;87590;-71
2023/04/09 15:06:20;;;;;;;1.70;0.60;;;16.30;50.80;;;;;;4883314;28;87018;-71
2023/04/09 15:08:46;;;;;;;2.28;0.60;;;16.30;49.10;;;;;;4883529;28;88181;-73
2023/04/09 15:11:16;;;;;;;1.15;0.35;;;16.30;48.50;;;;;;4878612;28;88551;-72
2023/04/09 15:13:41;;;;;;;;;;;16.20;48.20;;;;;;4888041;28;89397;-71
2023/04/09 15:16:07;;;;;;;1.30;0.30;;;16.30;48.60;;;;;;4881427;28;86387;-72
2023/04/09 15:18:33;;;;;;;1.27;0.40;;;16.20;48.00;;;;;;4879001;28;88134;-72
2023/04/09 15:20:59;;;;;;;1.63;0.47;;;16.20;48.80;;;;;;4869420;28;87878;-72
2023/04/09 15:23:24;;;;;;;2.83;0.32;;;16.10;51.40;;;;;;4878656;28;88360;-72
2023/04/09 15:25:50;;;;;;;1.63;0.30;;;16.20;49.20;;;;;;4876240;28;89023;-72
2023/04/09 15:28:16;;;;;;;1.90;0.40;;;16.20;49.70;;;;;;4854084;28;88190;-71
2023/04/09 15:30:41;;;;;;;1.58;0.50;;;16.20;49.20;;;;;;4879452;28;87872;-72
2023/04/09 15:33:07;;;;;;;1.42;0.50;;;16.10;48.90;;;;;;4878649;28;88609;-71
2023/04/09 15:35:34;;;;;;;2.97;0.60;;;16.10;50.50;;;;;;4880090;28;87402;-71
2023/04/09 15:37:59;;;;;;;1.63;0.50;;;16.10;47.80;;;;;;4875597;28;87801;-72
2023/04/09 15:40:27;;;;;;;1.70;0.60;;;16.10;47.40;;;;;;4878766;28;87308;-72
2023/04/09 15:42:53;;;;;;;1.77;0.55;;;16.00;48.30;;;;;;4878564;28;87869;-72
2023/04/09 15:45:19;;;;;;;1.20;0.40;;;16.10;48.80;;;;;;4873616;28;87648;-72